sensor_id;sensor_type;location;lat;lon;timestamp;pressure;altitude;pressure_sealevel;temperature;humidity
10261;BME280;5175;42.606;23.388;2023-03-18T00:01:38;94105.66;;;-0.18;100.00
10261;BME280;5175;42.606;23.388;2023-03-18T00:04:07;94103.47;;;-0.21;100.00
10261;BME280;5175;42.606;23.388;2023-03-18T00:06:35;94104.06;;;-0.19;100.00
10261;BME280;5175;42.606;23.388;2023-03-18T00:09:04;94101.22;;;-0.11;100.00
10261;BME280;5175;42.606;23.388;2023-03-18T00:11:31;94097.16;;;-0.07;100.00
10261;BME280;5175;42.606;23.388;2023-03-18T00:13:58;94092.16;;;-0.21;100.00
10261;BME280;5175;42.606;23.388;2023-03-18T00:16:24;94090.34;;;-0.27;100.00
10261;BME280;5175;42.606;23.388;2023-03-18T00:18:52;94090.19;;;-0.45;100.00
10261;BME280;5175;42.606;23.388;2023-03-18T00:21:20;94093.22;;;-0.42;100.00
10261;BME280;5175;42.606;23.388;2023-03-18T00:23:47;94091.38;;;-0.35;100.00
10261;BME280;5175;42.606;23.388;2023-03-18T00:26:15;94082.69;;;-0.35;100.00
10261;BME280;5175;42.606;23.388;2023-03-18T00:28:41;94089.56;;;-0.34;100.00
10261;BME280;5175;42.606;23.388;2023-03-18T00:31:10;94075.84;;;-0.30;100.00
10261;BME280;5175;42.606;23.388;2023-03-18T00:33:38;94075.88;;;-0.36;100.00
10261;BME280;5175;42.606;23.388;2023-03-18T00:36:08;94077.28;;;-0.47;100.00
10261;BME280;5175;42.606;23.388;2023-03-18T00:38:39;94074.84;;;-0.29;100.00
10261;BME280;5175;42.606;23.388;2023-03-18T00:41:08;94069.13;;;-0.13;100.00
10261;BME280;5175;42.606;23.388;2023-03-18T00:43:41;94059.09;;;-0.16;100.00
10261;BME280;5175;42.606;23.388;2023-03-18T00:46:14;94065.53;;;-0.25;100.00
10261;BME280;5175;42.606;23.388;2023-03-18T00:48:42;94063.50;;;-0.23;100.00
10261;BME280;5175;42.606;23.388;2023-03-18T00:51:09;94057.88;;;-0.20;100.00
10261;BME280;5175;42.606;23.388;2023-03-18T00:53:40;94051.44;;;-0.30;100.00
10261;BME280;5175;42.606;23.388;2023-03-18T00:56:07;94048.59;;;-0.16;100.00
10261;BME280;5175;42.606;23.388;2023-03-18T00:58:34;94047.78;;;-0.23;100.00
10261;BME280;5175;42.606;23.388;2023-03-18T01:01:02;94048.19;;;-0.19;100.00
10261;BME280;5175;42.606;23.388;2023-03-18T01:03:29;94039.16;;;-0.30;100.00
10261;BME280;5175;42.606;23.388;2023-03-18T01:05:56;94039.00;;;-0.54;100.00
10261;BME280;5175;42.606;23.388;2023-03-18T01:08:23;94049.81;;;-0.25;100.00
10261;BME280;5175;42.606;23.388;2023-03-18T01:10:52;94035.13;;;-0.26;100.00
10261;BME280;5175;42.606;23.388;2023-03-18T01:13:19;94044.94;;;-0.15;100.00
10261;BME280;5175;42.606;23.388;2023-03-18T01:15:47;94043.09;;;-0.08;100.00
10261;BME280;5175;42.606;23.388;2023-03-18T01:18:14;94032.00;;;-0.03;100.00
10261;BME280;5175;42.606;23.388;2023-03-18T01:20:41;94025.22;;;-0.24;100.00
10261;BME280;5175;42.606;23.388;2023-03-18T01:23:09;94010.19;;;-0.54;100.00
10261;BME280;5175;42.606;23.388;2023-03-18T01:25:37;94011.81;;;-0.60;100.00
10261;BME280;5175;42.606;23.388;2023-03-18T01:28:06;94020.25;;;-0.51;100.00
10261;BME280;5175;42.606;23.388;2023-03-18T01:30:32;94018.22;;;-0.43;100.00
10261;BME280;5175;42.606;23.388;2023-03-18T01:33:00;94016.81;;;-0.39;100.00
10261;BME280;5175;42.606;23.388;2023-03-18T01:35:29;94014.00;;;-0.44;100.00
10261;BME280;5175;42.606;23.388;2023-03-18T01:37:56;94010.97;;;-0.47;100.00
10261;BME280;5175;42.606;23.388;2023-03-18T01:40:24;94019.16;;;-0.24;100.00
10261;BME280;5175;42.606;23.388;2023-03-18T01:42:55;94018.34;;;-0.18;100.00
10261;BME280;5175;42.606;23.388;2023-03-18T01:45:27;94024.00;;;-0.28;100.00
10261;BME280;5175;42.606;23.388;2023-03-18T01:47:54;94012.94;;;-0.30;100.00
10261;BME280;5175;42.606;23.388;2023-03-18T01:50:34;94016.38;;;-0.29;100.00
10261;BME280;5175;42.606;23.388;2023-03-18T01:53:05;94016.56;;;-0.31;100.00
10261;BME280;5175;42.606;23.388;2023-03-18T01:55:33;94019.81;;;-0.35;100.00
10261;BME280;5175;42.606;23.388;2023-03-18T01:58:04;94015.41;;;-0.48;100.00
10261;BME280;5175;42.606;23.388;2023-03-18T02:00:35;94007.41;;;-0.73;100.00
10261;BME280;5175;42.606;23.388;2023-03-18T02:03:05;93988.69;;;-0.83;100.00
10261;BME280;5175;42.606;23.388;2023-03-18T02:05:33;94005.38;;;-0.71;100.00
10261;BME280;5175;42.606;23.388;2023-03-18T02:08:00;93998.69;;;-0.67;100.00
10261;BME280;5175;42.606;23.388;2023-03-18T02:10:29;94003.75;;;-0.65;100.00
10261;BME280;5175;42.606;23.388;2023-03-18T02:12:58;94002.34;;;-0.68;100.00
10261;BME280;5175;42.606;23.388;2023-03-18T02:15:27;94007.19;;;-0.65;100.00
10261;BME280;5175;42.606;23.388;2023-03-18T02:17:59;94003.34;;;-0.62;100.00
10261;BME280;5175;42.606;23.388;2023-03-18T02:20:38;94005.53;;;-0.59;100.00
10261;BME280;5175;42.606;23.388;2023-03-18T02:23:14;93998.91;;;-0.62;100.00
10261;BME280;5175;42.606;23.388;2023-03-18T02:25:48;94009.41;;;-0.68;100.00
10261;BME280;5175;42.606;23.388;2023-03-18T02:28:21;94007.59;;;-0.74;100.00
10261;BME280;5175;42.606;23.388;2023-03-18T02:30:51;94002.97;;;-0.79;100.00
10261;BME280;5175;42.606;23.388;2023-03-18T02:33:21;94001.97;;;-0.78;100.00
10261;BME280;5175;42.606;23.388;2023-03-18T02:35:54;94003.75;;;-0.72;100.00
10261;BME280;5175;42.606;23.388;2023-03-18T02:38:22;93999.75;;;-0.81;100.00
10261;BME280;5175;42.606;23.388;2023-03-18T02:40:49;94005.19;;;-0.82;100.00
10261;BME280;5175;42.606;23.388;2023-03-18T02:43:20;94005.19;;;-0.76;100.00
10261;BME280;5175;42.606;23.388;2023-03-18T02:45:54;94007.00;;;-0.76;100.00
10261;BME280;5175;42.606;23.388;2023-03-18T02:48:29;94001.56;;;-0.81;100.00
10261;BME280;5175;42.606;23.388;2023-03-18T02:50:58;93996.94;;;-0.99;100.00
10261;BME280;5175;42.606;23.388;2023-03-18T02:53:25;94006.19;;;-0.77;100.00
10261;BME280;5175;42.606;23.388;2023-03-18T02:55:52;94002.16;;;-0.79;100.00
10261;BME280;5175;42.606;23.388;2023-03-18T02:58:20;93994.34;;;-0.99;100.00
10261;BME280;5175;42.606;23.388;2023-03-18T03:00:47;93994.94;;;-0.90;100.00
10261;BME280;5175;42.606;23.388;2023-03-18T03:03:14;93983.88;;;-1.18;100.00
10261;BME280;5175;42.606;23.388;2023-03-18T03:05:41;93991.13;;;-1.27;100.00
10261;BME280;5175;42.606;23.388;2023-03-18T03:08:07;93991.72;;;-1.32;100.00
10261;BME280;5175;42.606;23.388;2023-03-18T03:10:35;93979.22;;;-1.56;100.00
10261;BME280;5175;42.606;23.388;2023-03-18T03:13:02;93995.34;;;-1.39;100.00
10261;BME280;5175;42.606;23.388;2023-03-18T03:15:30;93990.13;;;-1.39;100.00
10261;BME280;5175;42.606;23.388;2023-03-18T03:17:57;94004.59;;;-1.17;100.00
10261;BME280;5175;42.606;23.388;2023-03-18T03:20:24;94001.00;;;-1.16;100.00
10261;BME280;5175;42.606;23.388;2023-03-18T03:22:50;94005.41;;;-1.16;100.00
10261;BME280;5175;42.606;23.388;2023-03-18T03:25:17;94003.59;;;-1.29;100.00
10261;BME280;5175;42.606;23.388;2023-03-18T03:27:44;94007.22;;;-1.17;100.00
10261;BME280;5175;42.606;23.388;2023-03-18T03:30:13;94012.25;;;-1.15;100.00
10261;BME280;5175;42.606;23.388;2023-03-18T03:32:42;94012.47;;;-1.17;100.00
10261;BME280;5175;42.606;23.388;2023-03-18T03:35:11;94009.63;;;-1.22;100.00
10261;BME280;5175;42.606;23.388;2023-03-18T03:37:38;94018.69;;;-1.44;100.00
10261;BME280;5175;42.606;23.388;2023-03-18T03:40:05;94007.38;;;-1.51;100.00
10261;BME280;5175;42.606;23.388;2023-03-18T03:42:32;94012.06;;;-1.47;100.00
10261;BME280;5175;42.606;23.388;2023-03-18T03:44:59;94011.44;;;-1.36;100.00
10261;BME280;5175;42.606;23.388;2023-03-18T03:47:26;94015.88;;;-1.30;100.00
10261;BME280;5175;42.606;23.388;2023-03-18T03:49:54;94016.47;;;-1.28;100.00
10261;BME280;5175;42.606;23.388;2023-03-18T03:52:21;94011.44;;;-1.22;100.00
10261;BME280;5175;42.606;23.388;2023-03-18T03:54:48;94019.09;;;-1.28;100.00
10261;BME280;5175;42.606;23.388;2023-03-18T03:57:15;94009.63;;;-1.35;100.00
10261;BME280;5175;42.606;23.388;2023-03-18T03:59:42;94012.66;;;-1.32;100.00
10261;BME280;5175;42.606;23.388;2023-03-18T04:02:09;94011.25;;;-1.34;100.00
10261;BME280;5175;42.606;23.388;2023-03-18T04:04:36;94008.63;;;-1.34;100.00
10261;BME280;5175;42.606;23.388;2023-03-18T04:07:04;94017.47;;;-1.35;100.00
10261;BME280;5175;42.606;23.388;2023-03-18T04:09:31;94022.13;;;-1.37;100.00
10261;BME280;5175;42.606;23.388;2023-03-18T04:11:59;94013.66;;;-1.39;100.00
10261;BME280;5175;42.606;23.388;2023-03-18T04:14:25;94031.56;;;-1.36;100.00
10261;BME280;5175;42.606;23.388;2023-03-18T04:16:52;94027.72;;;-1.60;100.00
10261;BME280;5175;42.606;23.388;2023-03-18T04:19:20;94040.97;;;-1.68;100.00
10261;BME280;5175;42.606;23.388;2023-03-18T04:21:47;94043.56;;;-1.81;100.00
10261;BME280;5175;42.606;23.388;2023-03-18T04:24:15;94032.84;;;-1.99;100.00
10261;BME280;5175;42.606;23.388;2023-03-18T04:26:42;94046.16;;;-1.81;100.00
10261;BME280;5175;42.606;23.388;2023-03-18T04:29:09;94051.66;;;-1.63;100.00
10261;BME280;5175;42.606;23.388;2023-03-18T04:31:35;94054.28;;;-1.63;100.00
10261;BME280;5175;42.606;23.388;2023-03-18T04:34:02;94053.06;;;-1.54;100.00
10261;BME280;5175;42.606;23.388;2023-03-18T04:36:29;94060.91;;;-1.54;100.00
10261;BME280;5175;42.606;23.388;2023-03-18T04:38:56;94067.75;;;-1.59;100.00
10261;BME280;5175;42.606;23.388;2023-03-18T04:41:25;94062.28;;;-1.71;100.00
10261;BME280;5175;42.606;23.388;2023-03-18T04:43:52;94061.72;;;-1.60;100.00
10261;BME280;5175;42.606;23.388;2023-03-18T04:46:19;94065.75;;;-1.51;100.00
10261;BME280;5175;42.606;23.388;2023-03-18T04:48:46;94062.94;;;-1.56;100.00
10261;BME280;5175;42.606;23.388;2023-03-18T04:51:13;94070.78;;;-1.56;100.00
10261;BME280;5175;42.606;23.388;2023-03-18T04:53:40;94066.16;;;-1.54;100.00
10261;BME280;5175;42.606;23.388;2023-03-18T04:56:07;94064.16;;;-1.52;100.00
10261;BME280;5175;42.606;23.388;2023-03-18T04:58:35;94065.97;;;-1.46;100.00
10261;BME280;5175;42.606;23.388;2023-03-18T05:01:02;94069.56;;;-1.60;100.00
10261;BME280;5175;42.606;23.388;2023-03-18T05:03:29;94064.31;;;-1.73;100.00
10261;BME280;5175;42.606;23.388;2023-03-18T05:05:56;94073.31;;;-1.82;100.00
10261;BME280;5175;42.606;23.388;2023-03-18T05:08:22;94061.25;;;-1.76;100.00
10261;BME280;5175;42.606;23.388;2023-03-18T05:10:49;94065.16;;;-1.53;100.00
10261;BME280;5175;42.606;23.388;2023-03-18T05:13:16;94058.94;;;-1.39;100.00
10261;BME280;5175;42.606;23.388;2023-03-18T05:15:44;94066.00;;;-1.33;100.00
10261;BME280;5175;42.606;23.388;2023-03-18T05:18:12;94063.19;;;-1.31;100.00
10261;BME280;5175;42.606;23.388;2023-03-18T05:20:38;94066.34;;;-1.62;100.00
10261;BME280;5175;42.606;23.388;2023-03-18T05:23:05;94056.06;;;-1.70;100.00
10261;BME280;5175;42.606;23.388;2023-03-18T05:25:32;94060.50;;;-1.64;100.00
10261;BME280;5175;42.606;23.388;2023-03-18T05:27:58;94048.19;;;-1.83;100.00
10261;BME280;5175;42.606;23.388;2023-03-18T05:30:25;94058.47;;;-1.68;100.00
10261;BME280;5175;42.606;23.388;2023-03-18T05:32:54;94049.63;;;-1.67;100.00
10261;BME280;5175;42.606;23.388;2023-03-18T05:35:20;94046.41;;;-1.63;100.00
10261;BME280;5175;42.606;23.388;2023-03-18T05:37:47;94050.25;;;-1.59;100.00
10261;BME280;5175;42.606;23.388;2023-03-18T05:40:14;94040.19;;;-1.62;100.00
10261;BME280;5175;42.606;23.388;2023-03-18T05:42:40;94055.91;;;-1.36;100.00
10261;BME280;5175;42.606;23.388;2023-03-18T05:45:08;94037.63;;;-1.29;100.00
10261;BME280;5175;42.606;23.388;2023-03-18T05:47:35;94046.50;;;-1.17;100.00
10261;BME280;5175;42.606;23.388;2023-03-18T05:50:03;94047.50;;;-1.11;100.00
10261;BME280;5175;42.606;23.388;2023-03-18T05:52:30;94048.72;;;-0.88;100.00
10261;BME280;5175;42.606;23.388;2023-03-18T05:54:56;94052.94;;;-0.74;100.00
10261;BME280;5175;42.606;23.388;2023-03-18T05:57:23;94050.88;;;-0.58;100.00
10261;BME280;5175;42.606;23.388;2023-03-18T05:59:50;94051.72;;;-0.51;100.00
10261;BME280;5175;42.606;23.388;2023-03-18T06:02:18;94047.63;;;-0.34;100.00
10261;BME280;5175;42.606;23.388;2023-03-18T06:04:44;94068.34;;;-0.20;100.00
10261;BME280;5175;42.606;23.388;2023-03-18T06:07:13;94067.47;;;0.06;100.00
10261;BME280;5175;42.606;23.388;2023-03-18T06:09:40;94079.91;;;0.30;100.00
10261;BME280;5175;42.606;23.388;2023-03-18T06:12:07;94078.56;;;0.59;100.00
10261;BME280;5175;42.606;23.388;2023-03-18T06:14:35;94070.41;;;0.67;100.00
10261;BME280;5175;42.606;23.388;2023-03-18T06:17:02;94083.03;;;0.83;100.00
10261;BME280;5175;42.606;23.388;2023-03-18T06:19:29;94075.38;;;0.44;100.00
10261;BME280;5175;42.606;23.388;2023-03-18T06:21:56;94077.28;;;0.68;100.00
10261;BME280;5175;42.606;23.388;2023-03-18T06:24:24;94087.97;;;1.04;100.00
10261;BME280;5175;42.606;23.388;2023-03-18T06:26:51;94080.63;;;1.38;100.00
10261;BME280;5175;42.606;23.388;2023-03-18T06:29:18;94093.28;;;1.72;100.00
10261;BME280;5175;42.606;23.388;2023-03-18T06:31:45;94082.19;;;1.88;100.00
10261;BME280;5175;42.606;23.388;2023-03-18T06:34:12;94084.13;;;2.17;100.00
10261;BME280;5175;42.606;23.388;2023-03-18T06:36:39;94074.25;;;2.31;100.00
10261;BME280;5175;42.606;23.388;2023-03-18T06:39:06;94070.94;;;2.53;100.00
10261;BME280;5175;42.606;23.388;2023-03-18T06:41:34;94067.59;;;2.76;100.00
10261;BME280;5175;42.606;23.388;2023-03-18T06:44:01;94069.22;;;2.89;100.00
10261;BME280;5175;42.606;23.388;2023-03-18T06:46:28;94070.88;;;3.01;100.00
10261;BME280;5175;42.606;23.388;2023-03-18T06:48:55;94068.09;;;3.26;100.00
10261;BME280;5175;42.606;23.388;2023-03-18T06:51:21;94068.47;;;3.41;100.00
10261;BME280;5175;42.606;23.388;2023-03-18T06:53:49;94071.53;;;3.50;100.00
10261;BME280;5175;42.606;23.388;2023-03-18T06:56:15;94074.09;;;3.68;100.00
10261;BME280;5175;42.606;23.388;2023-03-18T06:58:43;94069.06;;;3.90;97.76
10261;BME280;5175;42.606;23.388;2023-03-18T07:01:11;94076.00;;;4.19;95.29
10261;BME280;5175;42.606;23.388;2023-03-18T07:03:38;94066.03;;;4.21;94.34
10261;BME280;5175;42.606;23.388;2023-03-18T07:06:05;94061.53;;;4.21;94.15
10261;BME280;5175;42.606;23.388;2023-03-18T07:08:34;94078.28;;;4.38;93.90
10261;BME280;5175;42.606;23.388;2023-03-18T07:11:00;94078.50;;;4.49;93.89
10261;BME280;5175;42.606;23.388;2023-03-18T07:13:28;94067.97;;;4.65;94.69
10261;BME280;5175;42.606;23.388;2023-03-18T07:15:56;94072.88;;;4.85;91.01
10261;BME280;5175;42.606;23.388;2023-03-18T07:18:24;94077.66;;;4.88;91.40
10261;BME280;5175;42.606;23.388;2023-03-18T07:20:51;94076.69;;;5.05;89.09
10261;BME280;5175;42.606;23.388;2023-03-18T07:23:18;94079.69;;;5.26;88.70
10261;BME280;5175;42.606;23.388;2023-03-18T07:25:46;94077.03;;;5.26;87.43
10261;BME280;5175;42.606;23.388;2023-03-18T07:28:12;94078.50;;;5.33;89.36
10261;BME280;5175;42.606;23.388;2023-03-18T07:30:39;94083.22;;;5.31;88.80
10261;BME280;5175;42.606;23.388;2023-03-18T07:33:07;94080.50;;;5.43;90.26
10261;BME280;5175;42.606;23.388;2023-03-18T07:35:34;94081.16;;;5.66;89.93
10261;BME280;5175;42.606;23.388;2023-03-18T07:38:02;94081.38;;;5.65;91.65
10261;BME280;5175;42.606;23.388;2023-03-18T07:40:29;94087.84;;;5.86;90.03
10261;BME280;5175;42.606;23.388;2023-03-18T07:42:56;94087.63;;;5.87;90.68
10261;BME280;5175;42.606;23.388;2023-03-18T07:45:22;94086.94;;;5.80;92.17
10261;BME280;5175;42.606;23.388;2023-03-18T07:47:49;94091.06;;;5.88;92.24
10261;BME280;5175;42.606;23.388;2023-03-18T07:50:18;94096.44;;;5.93;92.57
10261;BME280;5175;42.606;23.388;2023-03-18T07:52:44;94087.50;;;5.82;91.85
10261;BME280;5175;42.606;23.388;2023-03-18T07:55:11;94091.75;;;5.83;92.92
10261;BME280;5175;42.606;23.388;2023-03-18T07:57:38;94089.34;;;5.48;93.88
10261;BME280;5175;42.606;23.388;2023-03-18T08:00:07;94095.44;;;5.82;93.23
10261;BME280;5175;42.606;23.388;2023-03-18T08:02:34;94088.09;;;6.01;90.95
10261;BME280;5175;42.606;23.388;2023-03-18T08:05:02;94068.75;;;6.00;90.39
10261;BME280;5175;42.606;23.388;2023-03-18T08:07:32;94093.50;;;6.27;91.52
10261;BME280;5175;42.606;23.388;2023-03-18T08:10:00;94093.16;;;6.24;90.09
10261;BME280;5175;42.606;23.388;2023-03-18T08:12:26;94088.66;;;6.41;88.33
10261;BME280;5175;42.606;23.388;2023-03-18T08:14:53;94085.19;;;6.41;87.01
10261;BME280;5175;42.606;23.388;2023-03-18T08:17:20;94089.88;;;6.34;86.30
10261;BME280;5175;42.606;23.388;2023-03-18T08:19:47;94072.38;;;6.76;85.33
10261;BME280;5175;42.606;23.388;2023-03-18T08:22:14;94092.41;;;7.10;82.29
10261;BME280;5175;42.606;23.388;2023-03-18T08:24:42;94093.81;;;7.18;80.83
10261;BME280;5175;42.606;23.388;2023-03-18T08:27:10;94104.56;;;7.33;78.73
10261;BME280;5175;42.606;23.388;2023-03-18T08:29:36;94099.59;;;7.15;80.44
10261;BME280;5175;42.606;23.388;2023-03-18T08:32:04;94100.09;;;7.12;81.30
10261;BME280;5175;42.606;23.388;2023-03-18T08:34:30;94103.72;;;7.27;81.67
10261;BME280;5175;42.606;23.388;2023-03-18T08:36:57;94102.34;;;7.46;78.96
10261;BME280;5175;42.606;23.388;2023-03-18T08:39:24;94086.94;;;7.48;78.85
10261;BME280;5175;42.606;23.388;2023-03-18T08:41:52;94084.78;;;7.72;78.88
10261;BME280;5175;42.606;23.388;2023-03-18T08:44:19;94104.84;;;7.90;76.77
10261;BME280;5175;42.606;23.388;2023-03-18T08:46:46;94099.63;;;8.05;76.52
10261;BME280;5175;42.606;23.388;2023-03-18T08:49:12;94099.41;;;8.11;74.71
10261;BME280;5175;42.606;23.388;2023-03-18T08:51:39;94095.19;;;8.47;75.09
10261;BME280;5175;42.606;23.388;2023-03-18T08:54:06;94106.66;;;8.58;74.35
10261;BME280;5175;42.606;23.388;2023-03-18T08:56:33;94106.22;;;8.81;73.79
10261;BME280;5175;42.606;23.388;2023-03-18T08:59:01;94104.88;;;8.73;72.59
10261;BME280;5175;42.606;23.388;2023-03-18T09:01:28;94110.78;;;8.86;70.83
10261;BME280;5175;42.606;23.388;2023-03-18T09:03:56;94109.75;;;8.92;71.03
10261;BME280;5175;42.606;23.388;2023-03-18T09:06:23;94109.75;;;8.92;70.31
10261;BME280;5175;42.606;23.388;2023-03-18T09:08:50;94110.13;;;9.20;70.13
10261;BME280;5175;42.606;23.388;2023-03-18T09:11:17;94117.84;;;9.22;68.38
10261;BME280;5175;42.606;23.388;2023-03-18T09:13:44;94123.19;;;9.27;65.58
10261;BME280;5175;42.606;23.388;2023-03-18T09:16:12;94111.91;;;9.00;65.94
10261;BME280;5175;42.606;23.388;2023-03-18T09:18:39;94132.75;;;9.23;65.43
10261;BME280;5175;42.606;23.388;2023-03-18T09:21:06;94136.38;;;8.97;62.86
10261;BME280;5175;42.606;23.388;2023-03-18T09:23:33;94129.50;;;9.01;62.55
10261;BME280;5175;42.606;23.388;2023-03-18T09:26:00;94130.38;;;9.21;60.63
10261;BME280;5175;42.606;23.388;2023-03-18T09:28:28;94125.56;;;9.18;67.19
10261;BME280;5175;42.606;23.388;2023-03-18T09:30:54;94111.50;;;9.38;64.03
10261;BME280;5175;42.606;23.388;2023-03-18T09:33:22;94140.84;;;9.68;61.81
10261;BME280;5175;42.606;23.388;2023-03-18T09:35:49;94137.44;;;9.73;61.63
10261;BME280;5175;42.606;23.388;2023-03-18T09:38:18;94136.59;;;9.62;58.93
10261;BME280;5175;42.606;23.388;2023-03-18T09:40:51;94131.31;;;9.82;55.82
10261;BME280;5175;42.606;23.388;2023-03-18T09:43:32;94139.59;;;9.91;50.24
10261;BME280;5175;42.606;23.388;2023-03-18T09:46:07;94127.59;;;9.93;49.28
10261;BME280;5175;42.606;23.388;2023-03-18T09:48:46;94130.28;;;10.14;49.96
10261;BME280;5175;42.606;23.388;2023-03-18T09:51:30;94127.59;;;10.08;52.47
10261;BME280;5175;42.606;23.388;2023-03-18T09:54:08;94130.53;;;10.12;51.19
10261;BME280;5175;42.606;23.388;2023-03-18T09:56:38;94137.16;;;9.99;50.89
10261;BME280;5175;42.606;23.388;2023-03-18T09:59:13;94133.16;;;9.97;50.37
10261;BME280;5175;42.606;23.388;2023-03-18T10:01:42;94125.47;;;10.41;50.58
10261;BME280;5175;42.606;23.388;2023-03-18T10:04:16;94127.53;;;10.74;50.04
10261;BME280;5175;42.606;23.388;2023-03-18T10:06:47;94132.06;;;10.74;50.30
10261;BME280;5175;42.606;23.388;2023-03-18T10:09:19;94132.66;;;10.65;49.48
10261;BME280;5175;42.606;23.388;2023-03-18T10:11:51;94115.00;;;10.75;49.81
10261;BME280;5175;42.606;23.388;2023-03-18T10:14:27;94125.38;;;10.96;48.16
10261;BME280;5175;42.606;23.388;2023-03-18T10:17:02;94119.88;;;11.31;47.97
10261;BME280;5175;42.606;23.388;2023-03-18T10:19:33;94125.38;;;11.55;46.03
10261;BME280;5175;42.606;23.388;2023-03-18T10:22:14;94123.09;;;11.28;44.27
10261;BME280;5175;42.606;23.388;2023-03-18T10:24:48;94114.03;;;11.29;47.45
10261;BME280;5175;42.606;23.388;2023-03-18T10:27:20;94110.38;;;11.00;45.36
10261;BME280;5175;42.606;23.388;2023-03-18T10:29:54;94104.28;;;10.90;45.92
10261;BME280;5175;42.606;23.388;2023-03-18T10:32:30;94110.75;;;10.58;47.69
10261;BME280;5175;42.606;23.388;2023-03-18T10:35:07;94109.47;;;10.26;47.25
10261;BME280;5175;42.606;23.388;2023-03-18T10:37:48;94121.50;;;10.13;47.49
10261;BME280;5175;42.606;23.388;2023-03-18T10:40:18;94119.56;;;10.69;46.95
10261;BME280;5175;42.606;23.388;2023-03-18T10:42:47;94115.81;;;10.75;46.05
10261;BME280;5175;42.606;23.388;2023-03-18T10:45:21;94118.72;;;10.89;46.09
10261;BME280;5175;42.606;23.388;2023-03-18T10:47:54;94113.22;;;10.35;45.58
10261;BME280;5175;42.606;23.388;2023-03-18T10:50:30;94121.97;;;10.71;46.27
10261;BME280;5175;42.606;23.388;2023-03-18T10:53:03;94114.28;;;10.39;47.45
10261;BME280;5175;42.606;23.388;2023-03-18T10:55:36;94113.22;;;10.45;47.29
10261;BME280;5175;42.606;23.388;2023-03-18T10:58:14;94108.63;;;10.76;46.44
10261;BME280;5175;42.606;23.388;2023-03-18T11:00:41;94126.94;;;11.02;44.23
10261;BME280;5175;42.606;23.388;2023-03-18T11:03:18;94114.09;;;11.04;40.46
10261;BME280;5175;42.606;23.388;2023-03-18T11:05:48;94098.56;;;11.21;40.98
10261;BME280;5175;42.606;23.388;2023-03-18T11:08:37;94106.88;;;11.10;40.63
10261;BME280;5175;42.606;23.388;2023-03-18T11:11:18;94102.00;;;11.27;40.24
10261;BME280;5175;42.606;23.388;2023-03-18T11:13:46;94108.38;;;10.57;40.34
10261;BME280;5175;42.606;23.388;2023-03-18T11:16:21;94106.28;;;10.24;41.27
10261;BME280;5175;42.606;23.388;2023-03-18T11:18:50;94106.28;;;10.29;42.31
10261;BME280;5175;42.606;23.388;2023-03-18T11:21:21;94096.69;;;10.23;42.26
10261;BME280;5175;42.606;23.388;2023-03-18T11:23:51;94107.63;;;10.16;43.35
10261;BME280;5175;42.606;23.388;2023-03-18T11:26:44;94114.00;;;10.10;42.97
10261;BME280;5175;42.606;23.388;2023-03-18T11:29:15;94108.94;;;9.98;42.13
10261;BME280;5175;42.606;23.388;2023-03-18T11:31:47;94103.59;;;9.98;41.90
10261;BME280;5175;42.606;23.388;2023-03-18T11:34:16;94093.97;;;9.57;44.19
10261;BME280;5175;42.606;23.388;2023-03-18T11:36:52;94103.84;;;9.92;44.57
10261;BME280;5175;42.606;23.388;2023-03-18T11:39:21;94092.13;;;10.08;42.82
10261;BME280;5175;42.606;23.388;2023-03-18T11:41:49;94095.63;;;10.29;43.08
10261;BME280;5175;42.606;23.388;2023-03-18T11:44:22;94095.88;;;10.17;44.36
10261;BME280;5175;42.606;23.388;2023-03-18T11:46:53;94091.47;;;9.20;42.96
10261;BME280;5175;42.606;23.388;2023-03-18T11:49:23;94087.78;;;9.26;44.42
10261;BME280;5175;42.606;23.388;2023-03-18T11:52:03;94099.72;;;9.14;44.64
10261;BME280;5175;42.606;23.388;2023-03-18T11:54:52;94092.38;;;9.66;47.05
10261;BME280;5175;42.606;23.388;2023-03-18T11:57:30;94082.53;;;10.17;42.92
10261;BME280;5175;42.606;23.388;2023-03-18T12:00:11;94085.81;;;11.03;43.50
10261;BME280;5175;42.606;23.388;2023-03-18T12:02:58;94087.59;;;11.23;39.78
10261;BME280;5175;42.606;23.388;2023-03-18T12:05:38;94064.84;;;11.30;40.47
10261;BME280;5175;42.606;23.388;2023-03-18T12:08:17;94090.88;;;11.05;41.86
10261;BME280;5175;42.606;23.388;2023-03-18T12:10:50;94104.59;;;10.78;41.82
10261;BME280;5175;42.606;23.388;2023-03-18T12:13:42;94108.66;;;10.30;41.32
10261;BME280;5175;42.606;23.388;2023-03-18T12:16:20;94098.00;;;10.00;41.63
10261;BME280;5175;42.606;23.388;2023-03-18T12:19:04;94097.19;;;9.89;42.09
10261;BME280;5175;42.606;23.388;2023-03-18T12:21:46;94099.88;;;10.35;42.87
10261;BME280;5175;42.606;23.388;2023-03-18T12:24:43;94099.59;;;10.51;43.64
10261;BME280;5175;42.606;23.388;2023-03-18T12:27:20;94093.72;;;10.54;42.43
10261;BME280;5175;42.606;23.388;2023-03-18T12:30:00;94090.53;;;10.17;44.89
10261;BME280;5175;42.606;23.388;2023-03-18T12:32:39;94099.88;;;10.35;42.39
10261;BME280;5175;42.606;23.388;2023-03-18T12:35:21;94078.00;;;10.33;42.61
10261;BME280;5175;42.606;23.388;2023-03-18T12:38:16;94085.34;;;10.91;42.12
10261;BME280;5175;42.606;23.388;2023-03-18T12:40:55;94090.56;;;11.21;41.32
10261;BME280;5175;42.606;23.388;2023-03-18T12:43:39;94096.03;;;10.91;41.28
10261;BME280;5175;42.606;23.388;2023-03-18T12:46:20;94092.66;;;10.30;41.13
10261;BME280;5175;42.606;23.388;2023-03-18T12:48:53;94099.28;;;9.52;42.24
10261;BME280;5175;42.606;23.388;2023-03-18T12:51:25;94086.97;;;9.21;42.99
10261;BME280;5175;42.606;23.388;2023-03-18T12:53:57;94091.47;;;9.20;43.14
10261;BME280;5175;42.606;23.388;2023-03-18T12:56:33;94097.41;;;9.48;42.77
10261;BME280;5175;42.606;23.388;2023-03-18T12:59:05;94090.00;;;9.85;43.54
10261;BME280;5175;42.606;23.388;2023-03-18T13:01:38;94089.22;;;10.35;42.62
10261;BME280;5175;42.606;23.388;2023-03-18T13:04:12;94067.47;;;10.82;41.36
10261;BME280;5175;42.606;23.388;2023-03-18T13:06:43;94075.16;;;11.52;42.83
10261;BME280;5175;42.606;23.388;2023-03-18T13:09:15;94073.66;;;11.80;38.26
10261;BME280;5175;42.606;23.388;2023-03-18T13:12:00;94085.00;;;12.63;39.08